sensor_id;sensor_type;location;lat;lon;timestamp;temperature;humidity
47590;DHT22;33316;52.298;9.056;2023-07-13T00:00:07;20.00;72.00
47590;DHT22;33316;52.298;9.056;2023-07-13T00:02:36;19.90;72.10
47590;DHT22;33316;52.298;9.056;2023-07-13T00:05:06;19.90;72.30
47590;DHT22;33316;52.298;9.056;2023-07-13T00:07:35;19.80;72.30
47590;DHT22;33316;52.298;9.056;2023-07-13T00:10:05;19.80;72.40
47590;DHT22;33316;52.298;9.056;2023-07-13T00:12:38;19.80;72.60
47590;DHT22;33316;52.298;9.056;2023-07-13T00:15:13;19.70;72.70
47590;DHT22;33316;52.298;9.056;2023-07-13T00:17:42;19.70;72.80
47590;DHT22;33316;52.298;9.056;2023-07-13T00:20:10;19.70;73.00
47590;DHT22;33316;52.298;9.056;2023-07-13T00:22:37;19.70;73.10
47590;DHT22;33316;52.298;9.056;2023-07-13T00:25:05;19.70;73.20
47590;DHT22;33316;52.298;9.056;2023-07-13T00:27:32;19.60;73.20
47590;DHT22;33316;52.298;9.056;2023-07-13T00:30:00;19.60;73.30
47590;DHT22;33316;52.298;9.056;2023-07-13T00:32:28;19.60;73.40
47590;DHT22;33316;52.298;9.056;2023-07-13T00:34:55;19.50;73.40
47590;DHT22;33316;52.298;9.056;2023-07-13T00:37:22;19.50;73.60
47590;DHT22;33316;52.298;9.056;2023-07-13T00:39:48;19.50;73.80
47590;DHT22;33316;52.298;9.056;2023-07-13T00:42:15;19.40;73.80
47590;DHT22;33316;52.298;9.056;2023-07-13T00:45:06;19.40;73.80
47590;DHT22;33316;52.298;9.056;2023-07-13T00:47:33;19.30;73.80
47590;DHT22;33316;52.298;9.056;2023-07-13T00:50:00;19.30;74.10
47590;DHT22;33316;52.298;9.056;2023-07-13T00:52:27;19.30;73.40
47590;DHT22;33316;52.298;9.056;2023-07-13T00:54:54;19.20;73.40
47590;DHT22;33316;52.298;9.056;2023-07-13T00:57:22;19.20;73.40
47590;DHT22;33316;52.298;9.056;2023-07-13T00:59:52;19.20;73.40
47590;DHT22;33316;52.298;9.056;2023-07-13T01:02:22;19.20;73.40
47590;DHT22;33316;52.298;9.056;2023-07-13T01:04:50;19.20;73.40
47590;DHT22;33316;52.298;9.056;2023-07-13T01:07:18;19.20;73.20
47590;DHT22;33316;52.298;9.056;2023-07-13T01:09:45;19.20;73.20
47590;DHT22;33316;52.298;9.056;2023-07-13T01:12:12;19.20;73.00
47590;DHT22;33316;52.298;9.056;2023-07-13T01:14:39;19.20;73.00
47590;DHT22;33316;52.298;9.056;2023-07-13T01:17:07;19.20;72.90
47590;DHT22;33316;52.298;9.056;2023-07-13T01:19:38;19.20;72.90
47590;DHT22;33316;52.298;9.056;2023-07-13T01:22:09;19.20;72.90
47590;DHT22;33316;52.298;9.056;2023-07-13T01:24:37;19.10;72.80
47590;DHT22;33316;52.298;9.056;2023-07-13T01:27:06;19.10;72.70
47590;DHT22;33316;52.298;9.056;2023-07-13T01:29:35;19.10;72.80
47590;DHT22;33316;52.298;9.056;2023-07-13T01:32:08;19.10;72.80
47590;DHT22;33316;52.298;9.056;2023-07-13T01:34:35;19.10;72.80
47590;DHT22;33316;52.298;9.056;2023-07-13T01:37:02;19.10;72.80
47590;DHT22;33316;52.298;9.056;2023-07-13T01:39:30;19.10;72.90
47590;DHT22;33316;52.298;9.056;2023-07-13T01:41:58;19.00;72.80
47590;DHT22;33316;52.298;9.056;2023-07-13T01:44:25;19.00;72.80
47590;DHT22;33316;52.298;9.056;2023-07-13T01:46:52;19.00;72.80
47590;DHT22;33316;52.298;9.056;2023-07-13T01:49:19;19.00;72.80
47590;DHT22;33316;52.298;9.056;2023-07-13T01:51:46;19.00;72.80
47590;DHT22;33316;52.298;9.056;2023-07-13T01:54:12;19.00;72.90
47590;DHT22;33316;52.298;9.056;2023-07-13T01:56:41;18.90;72.80
47590;DHT22;33316;52.298;9.056;2023-07-13T01:59:07;18.90;72.80
47590;DHT22;33316;52.298;9.056;2023-07-13T02:01:34;18.90;72.90
47590;DHT22;33316;52.298;9.056;2023-07-13T02:04:01;18.90;72.80
47590;DHT22;33316;52.298;9.056;2023-07-13T02:06:28;18.90;72.90
47590;DHT22;33316;52.298;9.056;2023-07-13T02:08:55;18.90;72.80
47590;DHT22;33316;52.298;9.056;2023-07-13T02:11:22;18.90;72.90
47590;DHT22;33316;52.298;9.056;2023-07-13T02:13:50;18.90;72.90
47590;DHT22;33316;52.298;9.056;2023-07-13T02:16:17;18.80;72.90
47590;DHT22;33316;52.298;9.056;2023-07-13T02:18:44;18.80;73.00
47590;DHT22;33316;52.298;9.056;2023-07-13T02:21:10;18.80;73.00
47590;DHT22;33316;52.298;9.056;2023-07-13T02:23:37;18.80;73.20
47590;DHT22;33316;52.298;9.056;2023-07-13T02:26:04;18.80;73.20
47590;DHT22;33316;52.298;9.056;2023-07-13T02:28:31;18.80;73.20
47590;DHT22;33316;52.298;9.056;2023-07-13T02:31:06;18.80;73.30
47590;DHT22;33316;52.298;9.056;2023-07-13T02:33:32;18.80;73.50
47590;DHT22;33316;52.298;9.056;2023-07-13T02:35:59;18.80;73.30
47590;DHT22;33316;52.298;9.056;2023-07-13T02:38:26;18.80;73.20
47590;DHT22;33316;52.298;9.056;2023-07-13T02:40:53;18.80;73.00
47590;DHT22;33316;52.298;9.056;2023-07-13T02:43:20;18.90;73.00
47590;DHT22;33316;52.298;9.056;2023-07-13T02:45:46;18.90;73.00
47590;DHT22;33316;52.298;9.056;2023-07-13T02:48:14;19.00;72.90
47590;DHT22;33316;52.298;9.056;2023-07-13T02:50:41;18.90;72.80
47590;DHT22;33316;52.298;9.056;2023-07-13T02:53:08;19.00;72.80
47590;DHT22;33316;52.298;9.056;2023-07-13T02:55:34;19.00;72.80
47590;DHT22;33316;52.298;9.056;2023-07-13T02:58:01;19.00;72.70
47590;DHT22;33316;52.298;9.056;2023-07-13T03:00:28;19.10;72.60
47590;DHT22;33316;52.298;9.056;2023-07-13T03:02:55;19.10;72.50
47590;DHT22;33316;52.298;9.056;2023-07-13T03:05:24;19.10;72.50
47590;DHT22;33316;52.298;9.056;2023-07-13T03:07:51;19.10;72.50
47590;DHT22;33316;52.298;9.056;2023-07-13T03:10:17;19.10;72.40
47590;DHT22;33316;52.298;9.056;2023-07-13T03:12:44;19.10;72.50
47590;DHT22;33316;52.298;9.056;2023-07-13T03:15:11;19.20;72.50
47590;DHT22;33316;52.298;9.056;2023-07-13T03:17:38;19.10;72.40
47590;DHT22;33316;52.298;9.056;2023-07-13T03:20:06;19.20;72.50
47590;DHT22;33316;52.298;9.056;2023-07-13T03:22:34;19.20;72.50
47590;DHT22;33316;52.298;9.056;2023-07-13T03:25:01;19.20;72.40
47590;DHT22;33316;52.298;9.056;2023-07-13T03:27:27;19.10;72.30
47590;DHT22;33316;52.298;9.056;2023-07-13T03:29:54;19.20;72.40
47590;DHT22;33316;52.298;9.056;2023-07-13T03:32:21;19.20;72.40
47590;DHT22;33316;52.298;9.056;2023-07-13T03:34:48;19.20;72.50
47590;DHT22;33316;52.298;9.056;2023-07-13T03:37:14;19.20;72.50
47590;DHT22;33316;52.298;9.056;2023-07-13T03:39:42;19.20;72.50
47590;DHT22;33316;52.298;9.056;2023-07-13T03:42:09;19.10;72.40
47590;DHT22;33316;52.298;9.056;2023-07-13T03:44:36;19.20;72.50
47590;DHT22;33316;52.298;9.056;2023-07-13T03:47:03;19.20;72.50
47590;DHT22;33316;52.298;9.056;2023-07-13T03:49:31;19.20;72.40
47590;DHT22;33316;52.298;9.056;2023-07-13T03:51:58;19.20;72.40
47590;DHT22;33316;52.298;9.056;2023-07-13T03:54:24;19.20;72.40
47590;DHT22;33316;52.298;9.056;2023-07-13T03:56:52;19.10;72.40
47590;DHT22;33316;52.298;9.056;2023-07-13T03:59:19;19.10;72.50
47590;DHT22;33316;52.298;9.056;2023-07-13T04:01:46;19.10;72.50
47590;DHT22;33316;52.298;9.056;2023-07-13T04:04:13;19.10;72.50
47590;DHT22;33316;52.298;9.056;2023-07-13T04:06:41;19.10;72.50
47590;DHT22;33316;52.298;9.056;2023-07-13T04:09:08;19.00;72.40
47590;DHT22;33316;52.298;9.056;2023-07-13T04:11:35;19.10;72.40
47590;DHT22;33316;52.298;9.056;2023-07-13T04:14:04;19.10;72.40
47590;DHT22;33316;52.298;9.056;2023-07-13T04:16:31;19.10;72.40
47590;DHT22;33316;52.298;9.056;2023-07-13T04:18:58;19.20;72.30
47590;DHT22;33316;52.298;9.056;2023-07-13T04:21:26;19.20;72.20
47590;DHT22;33316;52.298;9.056;2023-07-13T04:23:53;19.30;72.20
47590;DHT22;33316;52.298;9.056;2023-07-13T04:26:20;19.30;72.00
47590;DHT22;33316;52.298;9.056;2023-07-13T04:28:48;19.40;71.90
47590;DHT22;33316;52.298;9.056;2023-07-13T04:31:16;19.50;71.90
47590;DHT22;33316;52.298;9.056;2023-07-13T04:33:43;19.50;71.60
47590;DHT22;33316;52.298;9.056;2023-07-13T04:36:10;19.50;71.50
47590;DHT22;33316;52.298;9.056;2023-07-13T04:38:37;19.60;71.40
47590;DHT22;33316;52.298;9.056;2023-07-13T04:41:05;19.60;71.40
47590;DHT22;33316;52.298;9.056;2023-07-13T04:43:33;19.70;71.30
47590;DHT22;33316;52.298;9.056;2023-07-13T04:46:03;19.70;71.20
47590;DHT22;33316;52.298;9.056;2023-07-13T04:48:32;19.70;71.10
47590;DHT22;33316;52.298;9.056;2023-07-13T04:50:59;19.70;71.10
47590;DHT22;33316;52.298;9.056;2023-07-13T04:53:28;19.80;70.80
47590;DHT22;33316;52.298;9.056;2023-07-13T04:55:55;19.80;70.60
47590;DHT22;33316;52.298;9.056;2023-07-13T04:58:22;19.80;70.50
47590;DHT22;33316;52.298;9.056;2023-07-13T05:00:49;19.90;70.40
47590;DHT22;33316;52.298;9.056;2023-07-13T05:03:16;19.90;70.40
47590;DHT22;33316;52.298;9.056;2023-07-13T05:05:54;19.90;70.20
47590;DHT22;33316;52.298;9.056;2023-07-13T05:08:21;20.00;70.30
47590;DHT22;33316;52.298;9.056;2023-07-13T05:10:48;20.00;70.30
47590;DHT22;33316;52.298;9.056;2023-07-13T05:13:15;20.10;70.30
47590;DHT22;33316;52.298;9.056;2023-07-13T05:15:41;20.10;70.10
47590;DHT22;33316;52.298;9.056;2023-07-13T05:18:08;20.20;70.10
47590;DHT22;33316;52.298;9.056;2023-07-13T05:20:35;20.20;70.00
47590;DHT22;33316;52.298;9.056;2023-07-13T05:23:03;20.30;69.80
47590;DHT22;33316;52.298;9.056;2023-07-13T05:25:29;20.40;69.60
47590;DHT22;33316;52.298;9.056;2023-07-13T05:27:56;20.60;69.40
47590;DHT22;33316;52.298;9.056;2023-07-13T05:30:23;20.80;68.90
47590;DHT22;33316;52.298;9.056;2023-07-13T05:32:49;21.10;68.50
47590;DHT22;33316;52.298;9.056;2023-07-13T05:35:16;21.30;68.00
47590;DHT22;33316;52.298;9.056;2023-07-13T05:37:43;21.50;67.50
47590;DHT22;33316;52.298;9.056;2023-07-13T05:40:11;21.80;66.90
47590;DHT22;33316;52.298;9.056;2023-07-13T05:42:38;22.00;66.30
47590;DHT22;33316;52.298;9.056;2023-07-13T05:45:05;22.20;65.70
47590;DHT22;33316;52.298;9.056;2023-07-13T05:47:32;22.40;65.20
47590;DHT22;33316;52.298;9.056;2023-07-13T05:49:59;22.50;64.50
47590;DHT22;33316;52.298;9.056;2023-07-13T05:52:25;22.70;63.80
47590;DHT22;33316;52.298;9.056;2023-07-13T05:54:52;22.70;63.60
47590;DHT22;33316;52.298;9.056;2023-07-13T05:57:20;22.90;63.30
47590;DHT22;33316;52.298;9.056;2023-07-13T05:59:47;23.00;62.80
47590;DHT22;33316;52.298;9.056;2023-07-13T06:02:14;23.10;62.30
47590;DHT22;33316;52.298;9.056;2023-07-13T06:04:40;23.20;62.00
47590;DHT22;33316;52.298;9.056;2023-07-13T06:07:07;23.30;61.60
47590;DHT22;33316;52.298;9.056;2023-07-13T06:09:34;23.30;61.40
47590;DHT22;33316;52.298;9.056;2023-07-13T06:12:00;23.40;61.00
47590;DHT22;33316;52.298;9.056;2023-07-13T06:14:28;23.50;60.70
47590;DHT22;33316;52.298;9.056;2023-07-13T06:16:55;23.50;60.40
47590;DHT22;33316;52.298;9.056;2023-07-13T06:19:22;23.50;60.50
47590;DHT22;33316;52.298;9.056;2023-07-13T06:21:49;23.60;60.20
47590;DHT22;33316;52.298;9.056;2023-07-13T06:24:15;23.70;60.10
47590;DHT22;33316;52.298;9.056;2023-07-13T06:26:42;23.80;59.70
47590;DHT22;33316;52.298;9.056;2023-07-13T06:29:09;23.70;59.60
47590;DHT22;33316;52.298;9.056;2023-07-13T06:31:37;23.60;59.50
47590;DHT22;33316;52.298;9.056;2023-07-13T06:34:04;23.60;59.50
47590;DHT22;33316;52.298;9.056;2023-07-13T06:36:30;23.60;59.50
47590;DHT22;33316;52.298;9.056;2023-07-13T06:38:57;23.50;59.40
47590;DHT22;33316;52.298;9.056;2023-07-13T06:41:24;23.50;59.60
47590;DHT22;33316;52.298;9.056;2023-07-13T06:43:51;23.60;59.40
47590;DHT22;33316;52.298;9.056;2023-07-13T06:46:19;23.60;59.30
47590;DHT22;33316;52.298;9.056;2023-07-13T06:48:47;23.60;60.00
47590;DHT22;33316;52.298;9.056;2023-07-13T06:51:14;23.60;59.30
47590;DHT22;33316;52.298;9.056;2023-07-13T06:53:41;23.60;59.40
47590;DHT22;33316;52.298;9.056;2023-07-13T06:56:09;23.60;59.40
47590;DHT22;33316;52.298;9.056;2023-07-13T06:58:36;23.60;59.40
47590;DHT22;33316;52.298;9.056;2023-07-13T07:01:03;23.70;59.40
47590;DHT22;33316;52.298;9.056;2023-07-13T07:03:30;23.70;59.50
47590;DHT22;33316;52.298;9.056;2023-07-13T07:06:10;23.80;59.40
47590;DHT22;33316;52.298;9.056;2023-07-13T07:08:38;23.80;59.10
47590;DHT22;33316;52.298;9.056;2023-07-13T07:11:05;23.90;59.10
47590;DHT22;33316;52.298;9.056;2023-07-13T07:13:32;24.00;58.90
47590;DHT22;33316;52.298;9.056;2023-07-13T07:15:59;24.10;58.90
47590;DHT22;33316;52.298;9.056;2023-07-13T07:18:29;24.10;58.80
47590;DHT22;33316;52.298;9.056;2023-07-13T07:20:55;24.10;58.70
47590;DHT22;33316;52.298;9.056;2023-07-13T07:23:24;24.10;58.80
47590;DHT22;33316;52.298;9.056;2023-07-13T07:25:50;24.00;58.60
47590;DHT22;33316;52.298;9.056;2023-07-13T07:28:18;23.90;58.70
47590;DHT22;33316;52.298;9.056;2023-07-13T07:30:47;23.80;59.00
47590;DHT22;33316;52.298;9.056;2023-07-13T07:33:14;23.70;59.00
47590;DHT22;33316;52.298;9.056;2023-07-13T07:35:42;23.60;59.10
47590;DHT22;33316;52.298;9.056;2023-07-13T07:38:09;23.50;59.30
47590;DHT22;33316;52.298;9.056;2023-07-13T07:40:38;23.50;59.60
47590;DHT22;33316;52.298;9.056;2023-07-13T07:43:08;23.40;59.70
47590;DHT22;33316;52.298;9.056;2023-07-13T07:45:35;23.30;59.90
47590;DHT22;33316;52.298;9.056;2023-07-13T07:48:05;23.20;60.10
47590;DHT22;33316;52.298;9.056;2023-07-13T07:50:33;23.10;60.30
47590;DHT22;33316;52.298;9.056;2023-07-13T07:53:08;23.10;60.60
47590;DHT22;33316;52.298;9.056;2023-07-13T07:55:35;23.10;60.60
47590;DHT22;33316;52.298;9.056;2023-07-13T07:58:05;23.10;60.60
47590;DHT22;33316;52.298;9.056;2023-07-13T08:00:32;23.20;60.80
47590;DHT22;33316;52.298;9.056;2023-07-13T08:03:01;23.20;60.90
47590;DHT22;33316;52.298;9.056;2023-07-13T08:05:28;23.40;60.80
47590;DHT22;33316;52.298;9.056;2023-07-13T08:07:54;23.50;60.70
47590;DHT22;33316;52.298;9.056;2023-07-13T08:10:21;23.50;60.40
47590;DHT22;33316;52.298;9.056;2023-07-13T08:12:48;23.50;60.30
47590;DHT22;33316;52.298;9.056;2023-07-13T08:15:16;23.50;60.60
47590;DHT22;33316;52.298;9.056;2023-07-13T08:17:43;23.50;60.60
47590;DHT22;33316;52.298;9.056;2023-07-13T08:20:10;23.40;60.90
47590;DHT22;33316;52.298;9.056;2023-07-13T08:22:37;23.40;61.10
47590;DHT22;33316;52.298;9.056;2023-07-13T08:25:04;23.50;61.00
47590;DHT22;33316;52.298;9.056;2023-07-13T08:27:30;23.60;61.20
47590;DHT22;33316;52.298;9.056;2023-07-13T08:29:57;23.70;61.00
47590;DHT22;33316;52.298;9.056;2023-07-13T08:32:25;23.80;60.50
47590;DHT22;33316;52.298;9.056;2023-07-13T08:34:52;23.70;60.20
47590;DHT22;33316;52.298;9.056;2023-07-13T08:37:19;23.70;60.10
47590;DHT22;33316;52.298;9.056;2023-07-13T08:39:46;23.80;60.20
47590;DHT22;33316;52.298;9.056;2023-07-13T08:42:16;23.80;60.00
47590;DHT22;33316;52.298;9.056;2023-07-13T08:44:53;23.90;60.00
47590;DHT22;33316;52.298;9.056;2023-07-13T08:47:25;23.80;60.40
47590;DHT22;33316;52.298;9.056;2023-07-13T08:49:53;23.90;59.80
47590;DHT22;33316;52.298;9.056;2023-07-13T08:52:29;23.80;59.90
47590;DHT22;33316;52.298;9.056;2023-07-13T08:54:57;23.90;59.70
47590;DHT22;33316;52.298;9.056;2023-07-13T08:57:27;23.90;59.60
47590;DHT22;33316;52.298;9.056;2023-07-13T08:59:56;24.00;59.70
47590;DHT22;33316;52.298;9.056;2023-07-13T09:02:30;24.00;59.70
47590;DHT22;33316;52.298;9.056;2023-07-13T09:05:08;24.00;59.60
47590;DHT22;33316;52.298;9.056;2023-07-13T09:07:58;24.00;59.40
47590;DHT22;33316;52.298;9.056;2023-07-13T09:10:30;24.10;59.30
47590;DHT22;33316;52.298;9.056;2023-07-13T09:13:07;24.20;59.00
47590;DHT22;33316;52.298;9.056;2023-07-13T09:15:41;24.20;58.90
47590;DHT22;33316;52.298;9.056;2023-07-13T09:18:12;24.30;58.80
47590;DHT22;33316;52.298;9.056;2023-07-13T09:20:49;24.40;58.50
47590;DHT22;33316;52.298;9.056;2023-07-13T09:23:19;24.40;58.40
47590;DHT22;33316;52.298;9.056;2023-07-13T09:25:48;24.40;58.10
47590;DHT22;33316;52.298;9.056;2023-07-13T09:28:22;24.40;58.60
47590;DHT22;33316;52.298;9.056;2023-07-13T09:30:52;24.50;58.10
47590;DHT22;33316;52.298;9.056;2023-07-13T09:33:21;24.50;58.00
47590;DHT22;33316;52.298;9.056;2023-07-13T09:35:48;24.50;57.70
47590;DHT22;33316;52.298;9.056;2023-07-13T09:38:16;24.50;57.10
47590;DHT22;33316;52.298;9.056;2023-07-13T09:43:34;24.50;57.20
47590;DHT22;33316;52.298;9.056;2023-07-13T09:46:01;24.50;57.30
47590;DHT22;33316;52.298;9.056;2023-07-13T09:48:35;24.40;56.90
47590;DHT22;33316;52.298;9.056;2023-07-13T09:51:10;24.50;57.10
47590;DHT22;33316;52.298;9.056;2023-07-13T09:53:41;24.50;57.40
47590;DHT22;33316;52.298;9.056;2023-07-13T09:56:19;24.60;57.50
47590;DHT22;33316;52.298;9.056;2023-07-13T09:58:46;24.60;57.20
47590;DHT22;33316;52.298;9.056;2023-07-13T10:01:13;24.60;57.00
47590;DHT22;33316;52.298;9.056;2023-07-13T10:03:53;24.70;57.10
47590;DHT22;33316;52.298;9.056;2023-07-13T10:06:21;24.70;56.20
47590;DHT22;33316;52.298;9.056;2023-07-13T10:08:49;24.70;56.10
47590;DHT22;33316;52.298;9.056;2023-07-13T10:11:19;24.70;55.80
47590;DHT22;33316;52.298;9.056;2023-07-13T10:13:50;24.70;56.20
47590;DHT22;33316;52.298;9.056;2023-07-13T10:16:18;24.80;56.20
47590;DHT22;33316;52.298;9.056;2023-07-13T10:18:48;24.90;56.10
47590;DHT22;33316;52.298;9.056;2023-07-13T10:21:19;24.90;55.90
47590;DHT22;33316;52.298;9.056;2023-07-13T10:23:48;24.90;55.80
47590;DHT22;33316;52.298;9.056;2023-07-13T10:26:21;25.00;55.30
47590;DHT22;33316;52.298;9.056;2023-07-13T10:28:51;25.00;55.00
47590;DHT22;33316;52.298;9.056;2023-07-13T10:31:21;25.10;55.10
47590;DHT22;33316;52.298;9.056;2023-07-13T10:33:50;25.10;55.10
47590;DHT22;33316;52.298;9.056;2023-07-13T10:36:23;25.20;55.20
47590;DHT22;33316;52.298;9.056;2023-07-13T10:38:53;25.20;54.80
47590;DHT22;33316;52.298;9.056;2023-07-13T10:41:25;25.20;54.50
47590;DHT22;33316;52.298;9.056;2023-07-13T10:43:54;25.20;54.80
47590;DHT22;33316;52.298;9.056;2023-07-13T10:46:24;25.30;54.60
47590;DHT22;33316;52.298;9.056;2023-07-13T10:48:56;25.30;54.50
47590;DHT22;33316;52.298;9.056;2023-07-13T10:51:24;25.30;54.40
47590;DHT22;33316;52.298;9.056;2023-07-13T10:54:16;25.30;54.10
47590;DHT22;33316;52.298;9.056;2023-07-13T10:56:44;25.40;53.80
47590;DHT22;33316;52.298;9.056;2023-07-13T10:59:14;25.30;53.40
47590;DHT22;33316;52.298;9.056;2023-07-13T11:01:49;25.40;53.40
47590;DHT22;33316;52.298;9.056;2023-07-13T11:04:20;25.30;53.20
47590;DHT22;33316;52.298;9.056;2023-07-13T11:06:48;25.30;54.00
47590;DHT22;33316;52.298;9.056;2023-07-13T11:09:34;25.30;53.30
47590;DHT22;33316;52.298;9.056;2023-07-13T11:12:07;25.30;53.00
47590;DHT22;33316;52.298;9.056;2023-07-13T11:14:36;25.40;53.40
47590;DHT22;33316;52.298;9.056;2023-07-13T11:17:36;25.40;53.40
47590;DHT22;33316;52.298;9.056;2023-07-13T11:20:21;25.40;52.80
47590;DHT22;33316;52.298;9.056;2023-07-13T11:22:50;25.40;52.80
47590;DHT22;33316;52.298;9.056;2023-07-13T11:25:25;25.40;52.70
47590;DHT22;33316;52.298;9.056;2023-07-13T11:28:06;25.50;53.00
47590;DHT22;33316;52.298;9.056;2023-07-13T11:30:37;25.50;53.20
47590;DHT22;33316;52.298;9.056;2023-07-13T11:33:13;25.60;52.90
47590;DHT22;33316;52.298;9.056;2023-07-13T11:35:53;25.60;52.80
47590;DHT22;33316;52.298;9.056;2023-07-13T11:38:29;25.60;52.50
47590;DHT22;33316;52.298;9.056;2023-07-13T11:41:01;25.60;52.20
47590;DHT22;33316;52.298;9.056;2023-07-13T11:43:30;25.50;52.20
47590;DHT22;33316;52.298;9.056;2023-07-13T11:45:59;25.50;52.40
47590;DHT22;33316;52.298;9.056;2023-07-13T11:48:38;25.40;52.60
47590;DHT22;33316;52.298;9.056;2023-07-13T11:51:18;25.40;52.80
47590;DHT22;33316;52.298;9.056;2023-07-13T11:53:48;25.40;52.90
47590;DHT22;33316;52.298;9.056;2023-07-13T11:56:15;25.40;52.90
47590;DHT22;33316;52.298;9.056;2023-07-13T11:58:42;25.40;53.20
47590;DHT22;33316;52.298;9.056;2023-07-13T12:01:18;25.40;53.30
47590;DHT22;33316;52.298;9.056;2023-07-13T12:03:46;25.40;52.80
47590;DHT22;33316;52.298;9.056;2023-07-13T12:06:26;25.40;52.80
47590;DHT22;33316;52.298;9.056;2023-07-13T12:08:56;25.40;52.70
47590;DHT22;33316;52.298;9.056;2023-07-13T12:11:27;25.30;52.80
47590;DHT22;33316;52.298;9.056;2023-07-13T12:13:54;25.30;52.80
47590;DHT22;33316;52.298;9.056;2023-07-13T12:16:26;25.30;52.80
47590;DHT22;33316;52.298;9.056;2023-07-13T12:18:55;25.20;52.80
47590;DHT22;33316;52.298;9.056;2023-07-13T12:21:29;25.30;53.20
47590;DHT22;33316;52.298;9.056;2023-07-13T12:23:56;25.30;52.90
47590;DHT22;33316;52.298;9.056;2023-07-13T12:26:23;25.30;53.00
47590;DHT22;33316;52.298;9.056;2023-07-13T12:28:53;25.30;53.10
47590;DHT22;33316;52.298;9.056;2023-07-13T12:31:30;25.30;52.90
47590;DHT22;33316;52.298;9.056;2023-07-13T12:33:59;25.30;53.10
47590;DHT22;33316;52.298;9.056;2023-07-13T12:36:30;25.40;53.30
47590;DHT22;33316;52.298;9.056;2023-07-13T12:38:58;25.40;52.80
47590;DHT22;33316;52.298;9.056;2023-07-13T12:41:26;25.40;52.50
47590;DHT22;33316;52.298;9.056;2023-07-13T12:43:53;25.40;52.50
47590;DHT22;33316;52.298;9.056;2023-07-13T12:46:23;25.40;52.10
47590;DHT22;33316;52.298;9.056;2023-07-13T12:48:52;25.40;52.20
47590;DHT22;33316;52.298;9.056;2023-07-13T12:51:21;25.30;52.10
47590;DHT22;33316;52.298;9.056;2023-07-13T12:53:56;25.30;52.20
47590;DHT22;33316;52.298;9.056;2023-07-13T12:56:26;25.30;52.20
47590;DHT22;33316;52.298;9.056;2023-07-13T12:58:58;25.30;52.00
47590;DHT22;33316;52.298;9.056;2023-07-13T13:01:28;25.20;52.10
47590;DHT22;33316;52.298;9.056;2023-07-13T13:04:04;25.10;51.90
47590;DHT22;33316;52.298;9.056;2023-07-13T13:06:32;25.10;52.20
47590;DHT22;33316;52.298;9.056;2023-07-13T13:09:11;25.10;52.60
47590;DHT22;33316;52.298;9.056;2023-07-13T13:11:39;25.10;53.20
47590;DHT22;33316;52.298;9.056;2023-07-13T13:14:06;25.00;53.60
47590;DHT22;33316;52.298;9.056;2023-07-13T13:16:34;24.90;53.90
47590;DHT22;33316;52.298;9.056;2023-07-13T13:19:12;24.90;54.20
47590;DHT22;33316;52.298;9.056;2023-07-13T13:21:39;24.80;54.60
47590;DHT22;33316;52.298;9.056;2023-07-13T13:24:11;24.70;55.80
47590;DHT22;33316;52.298;9.056;2023-07-13T13:26:38;24.60;56.70
47590;DHT22;33316;52.298;9.056;2023-07-13T13:29:11;24.50;57.10
47590;DHT22;33316;52.298;9.056;2023-07-13T13:31:39;24.40;57.50
47590;DHT22;33316;52.298;9.056;2023-07-13T13:34:09;24.40;57.80
47590;DHT22;33316;52.298;9.056;2023-07-13T13:36:36;24.30;57.70
47590;DHT22;33316;52.298;9.056;2023-07-13T13:39:14;24.20;57.60
47590;DHT22;33316;52.298;9.056;2023-07-13T13:41:44;24.20;57.60
47590;DHT22;33316;52.298;9.056;2023-07-13T13:44:11;24.10;57.90
47590;DHT22;33316;52.298;9.056;2023-07-13T13:46:37;24.00;58.00
47590;DHT22;33316;52.298;9.056;2023-07-13T13:49:04;24.00;58.00
47590;DHT22;33316;52.298;9.056;2023-07-13T13:51:33;23.90;58.70
47590;DHT22;33316;52.298;9.056;2023-07-13T13:54:00;23.70;59.00
47590;DHT22;33316;52.298;9.056;2023-07-13T13:56:36;23.60;59.40
47590;DHT22;33316;52.298;9.056;2023-07-13T13:59:04;23.50;59.70
47590;DHT22;33316;52.298;9.056;2023-07-13T14:01:31;23.30;59.70
47590;DHT22;33316;52.298;9.056;2023-07-13T14:03:57;23.30;60.00
47590;DHT22;33316;52.298;9.056;2023-07-13T14:06:25;23.20;60.10
47590;DHT22;33316;52.298;9.056;2023-07-13T14:08:51;23.10;60.30
47590;DHT22;33316;52.298;9.056;2023-07-13T14:11:21;23.00;60.20
47590;DHT22;33316;52.298;9.056;2023-07-13T14:13:51;22.90;60.40
47590;DHT22;33316;52.298;9.056;2023-07-13T14:19:50;22.70;61.80
47590;DHT22;33316;52.298;9.056;2023-07-13T14:22:23;22.50;62.60
47590;DHT22;33316;52.298;9.056;2023-07-13T14:24:50;22.30;63.00
47590;DHT22;33316;52.298;9.056;2023-07-13T14:27:17;22.20;63.90
47590;DHT22;33316;52.298;9.056;2023-07-13T14:29:45;22.10;64.30
47590;DHT22;33316;52.298;9.056;2023-07-13T14:32:13;22.00;65.00
47590;DHT22;33316;52.298;9.056;2023-07-13T14:34:42;21.90;65.40
47590;DHT22;33316;52.298;9.056;2023-07-13T14:37:13;21.90;66.00
47590;DHT22;33316;52.298;9.056;2023-07-13T14:39:42;21.80;66.60
47590;DHT22;33316;52.298;9.056;2023-07-13T14:42:11;21.70;66.80
47590;DHT22;33316;52.298;9.056;2023-07-13T14:44:39;21.70;67.00
47590;DHT22;33316;52.298;9.056;2023-07-13T14:47:08;21.60;67.30
47590;DHT22;33316;52.298;9.056;2023-07-13T14:49:38;21.60;67.90
47590;DHT22;33316;52.298;9.056;2023-07-13T14:52:12;21.50;68.20
47590;DHT22;33316;52.298;9.056;2023-07-13T14:54:39;21.40;68.70
47590;DHT22;33316;52.298;9.056;2023-07-13T14:57:10;21.40;69.10
47590;DHT22;33316;52.298;9.056;2023-07-13T14:59:37;21.40;69.10
47590;DHT22;33316;52.298;9.056;2023-07-13T15:02:16;21.40;69.20
47590;DHT22;33316;52.298;9.056;2023-07-13T15:04:43;21.30;69.30
47590;DHT22;33316;52.298;9.056;2023-07-13T15:07:11;21.30;69.50
47590;DHT22;33316;52.298;9.056;2023-07-13T15:09:39;21.30;69.80
47590;DHT22;33316;52.298;9.056;2023-07-13T15:12:06;21.20;69.70
47590;DHT22;33316;52.298;9.056;2023-07-13T15:14:33;21.20;70.00
47590;DHT22;33316;52.298;9.056;2023-07-13T15:17:00;21.20;70.50
47590;DHT22;33316;52.298;9.056;2023-07-13T15:19:28;21.20;70.80
47590;DHT22;33316;52.298;9.056;2023-07-13T15:21:55;21.20;70.90
47590;DHT22;33316;52.298;9.056;2023-07-13T15:24:23;21.20;70.90
47590;DHT22;33316;52.298;9.056;2023-07-13T15:26:50;21.20;70.90
47590;DHT22;33316;52.298;9.056;2023-07-13T15:29:18;21.20;71.20
47590;DHT22;33316;52.298;9.056;2023-07-13T15:31:45;21.20;71.40
47590;DHT22;33316;52.298;9.056;2023-07-13T15:34:13;21.20;71.80
47590;DHT22;33316;52.298;9.056;2023-07-13T15:36:42;21.20;71.80
47590;DHT22;33316;52.298;9.056;2023-07-13T15:39:13;21.20;72.10
47590;DHT22;33316;52.298;9.056;2023-07-13T15:41:41;21.20;72.40
47590;DHT22;33316;52.298;9.056;2023-07-13T15:44:22;21.20;72.40
47590;DHT22;33316;52.298;9.056;2023-07-13T15:46:49;21.20;73.00